Time;durP1;ratioP1;P1;durP2;ratioP2;P2;SDS_P1;SDS_P2;PMS_P1;PMS_P2;Temp;Humidity;BMP_temperature;BMP_pressure;BME280_temperature;BME280_humidity;BME280_pressure;Samples;Min_cycle;Max_cycle;Signal;HPM_P1;HPM_P2
2022/04/15 00:01:39;;;;;;;4.00;2.90;;;;;;;17.50;50.84;99293.59;7033412;28;20315;-79
2022/04/15 00:05:00;;;;;;;4.87;2.80;;;;;;;16.93;52.17;99294.31;7033162;28;20242;-79
2022/04/15 00:08:22;;;;;;;4.00;2.80;;;;;;;17.22;51.84;99290.69;7033127;28;20208;-79
2022/04/15 00:11:45;;;;;;;2.80;2.60;;;;;;;17.32;51.30;99293.66;7034060;28;20237;-79
2022/04/15 00:15:09;;;;;;;4.10;3.00;;;;;;;17.29;51.46;99298.75;7034196;28;20233;-79
2022/04/15 00:18:30;;;;;;;4.87;2.83;;;;;;;17.12;52.44;99303.25;7033350;28;20205;-80
2022/04/15 00:21:52;;;;;;;3.17;2.87;;;;;;;17.49;51.25;99308.28;7033998;28;20225;-79
2022/04/15 00:25:14;;;;;;;3.97;3.03;;;;;;;16.97;52.71;99327.38;7034105;28;20280;-79
2022/04/15 00:28:35;;;;;;;3.27;2.63;;;;;;;17.36;51.84;99321.28;7032946;28;20242;-79
2022/04/15 00:31:58;;;;;;;3.07;2.70;;;;;;;17.03;52.59;99310.09;7033428;28;20278;-79
2022/04/15 00:35:20;;;;;;;4.57;2.50;;;;;;;17.33;52.08;99308.13;7039859;28;20229;-80
2022/04/15 00:38:41;;;;;;;4.43;3.07;;;;;;;17.22;51.84;99296.13;7033759;28;20347;-79
2022/04/15 00:42:04;;;;;;;2.90;2.70;;;;;;;16.93;51.90;99296.22;7032729;28;20232;-80
2022/04/15 00:45:25;;;;;;;3.93;2.70;;;;;;;17.47;51.22;99307.72;7032315;28;20205;-80
2022/04/15 00:48:48;;;;;;;2.90;2.70;;;;;;;17.54;51.05;99308.41;7031516;28;20232;-79
2022/04/15 00:52:11;;;;;;;2.67;2.47;;;;;;;17.73;50.29;99317.28;7031938;28;20350;-79
2022/04/15 00:55:33;;;;;;;5.10;3.00;;;;;;;17.29;50.76;99285.13;7031605;28;20232;-79
2022/04/15 00:58:55;;;;;;;9.37;3.23;;;;;;;16.91;51.47;99231.09;7030958;28;20300;-79
2022/04/15 01:02:18;;;;;;;3.43;3.00;;;;;;;17.61;50.53;99324.63;7032051;28;20293;-79
2022/04/15 01:05:41;;;;;;;3.60;3.30;;;;;;;17.52;51.38;99313.25;7029574;28;20199;-79
2022/04/15 01:09:03;;;;;;;5.67;3.30;;;;;;;17.48;51.15;99313.97;7031619;28;20282;-79
2022/04/15 01:12:29;;;;;;;3.50;2.70;;;;;;;17.63;50.85;99309.69;7030199;28;20209;-79
2022/04/15 01:15:51;;;;;;;3.33;3.03;;;;;;;17.74;50.50;99316.22;7030379;28;20241;-79
2022/04/15 01:19:13;;;;;;;5.30;3.10;;;;;;;17.49;51.02;99308.28;7031028;28;20365;-79
2022/04/15 01:22:40;;;;;;;4.97;2.90;;;;;;;17.42;51.68;99314.91;7031092;28;20205;-79
2022/04/15 01:26:03;;;;;;;3.37;2.80;;;;;;;17.40;51.15;99308.88;7030634;28;20205;-80
2022/04/15 01:29:26;;;;;;;3.77;2.73;;;;;;;17.38;51.70;99319.16;7030437;28;20328;-79
2022/04/15 01:32:49;;;;;;;3.50;2.47;;;;;;;17.03;52.22;99318.25;7031111;28;20265;-79
2022/04/15 01:36:11;;;;;;;3.23;2.90;;;;;;;17.27;52.27;99319.97;7030401;28;20319;-79
2022/04/15 01:39:34;;;;;;;3.77;2.80;;;;;;;17.32;52.03;99326.38;7030609;28;20220;-79
2022/04/15 01:42:57;;;;;;;3.23;2.93;;;;;;;17.21;51.96;99304.56;7030850;28;20204;-79
2022/04/15 01:46:19;;;;;;;3.30;2.97;;;;;;;17.53;50.85;99314.09;7030153;28;20405;-79
2022/04/15 01:49:40;;;;;;;3.20;2.90;;;;;;;17.13;51.29;99300.28;7030940;28;20829;-79
2022/04/15 01:53:02;;;;;;;3.27;2.60;;;;;;;17.21;52.25;99320.94;7030053;28;20342;-79
2022/04/15 01:56:23;;;;;;;5.43;2.80;;;;;;;17.28;51.95;99318.91;7030088;28;20304;-80
2022/04/15 01:59:46;;;;;;;3.77;2.80;;;;;;;17.00;53.04;99318.75;7030433;28;20225;-79
2022/04/15 02:03:09;;;;;;;3.60;3.00;;;;;;;17.33;51.82;99330.75;7029124;28;20232;-79
2022/04/15 02:06:31;;;;;;;2.70;2.50;;;;;;;16.64;52.82;99258.97;7029908;28;20215;-79
2022/04/15 02:09:52;;;;;;;6.57;2.77;;;;;;;16.75;53.45;99324.34;7030284;28;20740;-79
2022/04/15 02:13:14;;;;;;;3.07;2.80;;;;;;;16.75;53.26;99332.50;7030726;28;20229;-79
2022/04/15 02:16:37;;;;;;;3.43;3.10;;;;;;;16.80;52.71;99327.22;7029590;28;20232;-79
2022/04/15 02:19:59;;;;;;;4.50;3.33;;;;;;;16.75;53.95;99328.97;7030159;28;20654;-79
2022/04/15 02:23:20;;;;;;;4.47;2.70;;;;;;;16.88;52.88;99318.69;7030592;28;20749;-79
2022/04/15 02:26:42;;;;;;;3.33;2.70;;;;;;;17.11;52.11;99337.00;7035287;28;20201;-79
2022/04/15 02:30:04;;;;;;;3.30;3.00;;;;;;;16.93;52.65;99346.06;7036124;28;20411;-80
2022/04/15 02:33:28;;;;;;;3.97;2.97;;;;;;;16.98;52.16;99343.47;7036019;28;20212;-79
2022/04/15 02:36:49;;;;;;;3.40;3.03;;;;;;;16.48;53.08;99333.13;7035991;28;20703;-79
2022/04/15 02:40:12;;;;;;;5.90;3.20;;;;;;;16.36;54.45;99314.00;7036023;28;20672;-79
2022/04/15 02:43:35;;;;;;;5.10;2.60;;;;;;;16.62;53.66;99349.06;7036783;28;20253;-80
2022/04/15 02:46:58;;;;;;;5.63;3.43;;;;;;;15.64;56.68;99353.97;7035963;28;20216;-79
2022/04/15 02:50:21;;;;;;;4.90;3.00;;;;;;;16.32;55.21;99353.59;7036080;28;20222;-79
2022/04/15 02:53:43;;;;;;;4.30;3.30;;;;;;;16.64;54.23;99349.63;7037026;28;20205;-79
2022/04/15 02:57:05;;;;;;;3.47;3.03;;;;;;;16.55;54.07;99351.03;7035251;28;20230;-79
2022/04/15 03:00:26;;;;;;;3.23;2.80;;;;;;;16.62;53.77;99346.31;7036421;28;20337;-80
2022/04/15 03:03:48;;;;;;;3.67;3.00;;;;;;;16.65;53.47;99331.41;7035357;28;20208;-79
2022/04/15 03:07:11;;;;;;;3.13;2.80;;;;;;;16.87;52.48;99340.75;7036355;28;20205;-79
2022/04/15 03:10:33;;;;;;;3.27;2.60;;;;;;;16.57;53.26;99342.66;7048871;28;20238;-79
2022/04/15 03:13:54;;;;;;;4.40;3.00;;;;;;;16.50;53.36;99337.28;7051744;28;20205;-79
2022/04/15 03:17:16;;;;;;;4.57;3.20;;;;;;;15.73;55.58;99355.31;7042125;28;20225;-79
2022/04/15 03:20:37;;;;;;;4.13;3.30;;;;;;;15.97;55.34;99357.16;7035325;28;20227;-79
2022/04/15 03:24:00;;;;;;;3.83;3.27;;;;;;;16.22;54.80;99347.06;7034367;28;20307;-79
2022/04/15 03:27:22;;;;;;;3.93;3.27;;;;;;;16.27;54.37;99347.19;7034055;28;20206;-79
2022/04/15 03:30:43;;;;;;;4.07;3.27;;;;;;;15.74;55.20;99332.53;7034430;28;20316;-79
2022/04/15 03:34:05;;;;;;;4.20;3.20;;;;;;;15.89;55.40;99352.03;7034466;28;20202;-79
2022/04/15 03:37:27;;;;;;;3.63;3.00;;;;;;;16.12;54.62;99360.34;7033127;28;20596;-80
2022/04/15 03:40:50;;;;;;;6.13;2.73;;;;;;;16.25;53.88;99357.47;7034440;28;20239;-79
2022/04/15 03:44:11;;;;;;;3.60;3.10;;;;;;;15.85;54.81;99357.09;7034415;28;20251;-79
2022/04/15 03:47:33;;;;;;;4.00;3.50;;;;;;;15.50;55.77;99361.41;7033941;28;20292;-79
2022/04/15 03:50:54;;;;;;;5.23;3.20;;;;;;;15.43;56.26;99349.75;7034183;28;20247;-79
2022/04/15 03:54:16;;;;;;;3.50;3.10;;;;;;;15.67;55.54;99356.22;7034431;28;20284;-79
2022/04/15 03:57:39;;;;;;;4.17;3.43;;;;;;;15.63;55.57;99364.00;7034426;28;20239;-79
2022/04/15 04:01:01;;;;;;;3.83;3.00;;;;;;;15.69;54.87;99354.94;7034514;28;20635;-79
2022/04/15 04:04:22;;;;;;;4.60;3.27;;;;;;;15.65;55.26;99366.50;7031393;28;20412;-79
2022/04/15 04:07:44;;;;;;;3.00;2.80;;;;;;;15.73;54.88;99377.91;7031880;28;20224;-79
2022/04/15 04:11:06;;;;;;;3.60;3.30;;;;;;;15.64;54.99;99368.38;7032549;28;20229;-79
2022/04/15 04:14:29;;;;;;;4.63;3.63;;;;;;;14.81;57.35;99348.97;7034513;28;20349;-79
2022/04/15 04:17:50;;;;;;;4.33;3.83;;;;;;;15.15;56.94;99375.69;7034453;28;20325;-79
2022/04/15 04:21:12;;;;;;;3.37;3.07;;;;;;;15.27;56.05;99355.72;7035019;28;20724;-80
2022/04/15 04:24:34;;;;;;;3.90;3.50;;;;;;;15.26;55.85;99364.09;7034951;28;20212;-78
2022/04/15 04:27:55;;;;;;;5.00;3.70;;;;;;;15.13;56.00;99381.34;7033611;28;20229;-79
2022/04/15 04:31:20;;;;;;;5.47;3.47;;;;;;;14.93;56.70;99377.09;7034567;28;20354;-79
2022/04/15 04:34:42;;;;;;;4.53;3.60;;;;;;;15.11;56.70;99383.41;7034401;28;20314;-79
2022/04/15 04:38:03;;;;;;;4.60;3.60;;;;;;;15.28;56.05;99383.72;7034268;28;20719;-79
2022/04/15 04:41:25;;;;;;;6.23;4.47;;;;;;;14.63;57.45;99376.03;7035217;28;20318;-78
2022/04/15 04:44:47;;;;;;;4.97;4.07;;;;;;;14.65;57.51;99393.75;7031997;28;20200;-79
2022/04/15 04:48:10;;;;;;;5.50;4.10;;;;;;;14.66;58.10;99402.72;7025921;28;20199;-77
2022/04/15 04:51:31;;;;;;;6.10;3.70;;;;;;;14.91;57.33;99398.19;7031892;28;20313;-78
2022/04/15 04:54:53;;;;;;;5.20;4.40;;;;;;;14.95;57.25;99399.41;7031610;28;20347;-78
2022/04/15 04:58:15;;;;;;;4.70;4.30;;;;;;;14.83;57.46;99407.44;7025819;28;20298;-79
2022/04/15 05:01:36;;;;;;;7.13;4.90;;;;;;;14.75;57.92;99380.53;7012536;28;20289;-78
2022/04/15 05:05:00;;;;;;;7.07;6.47;;;;;;;15.44;55.78;99418.53;7003261;28;20690;-78
2022/04/15 05:08:22;;;;;;;4.03;3.60;;;;;;;15.27;55.32;99398.38;7003802;28;20197;-78
2022/04/15 05:11:43;;;;;;;6.73;5.70;;;;;;;15.21;55.92;99412.84;7003664;28;20233;-79
2022/04/15 05:15:06;;;;;;;4.20;3.90;;;;;;;15.55;55.23;99420.53;7005926;28;20212;-78
2022/04/15 05:18:27;;;;;;;4.37;3.97;;;;;;;15.46;54.42;99394.69;7030185;28;20337;-79
2022/04/15 05:21:52;;;;;;;5.53;5.03;;;;;;;15.51;54.30;99424.75;7021872;28;20309;-78
2022/04/15 05:25:14;;;;;;;4.37;3.87;;;;;;;15.62;54.46;99415.88;7023010;28;20201;-78
2022/04/15 05:28:36;;;;;;;4.73;4.20;;;;;;;15.27;55.59;99422.81;7030725;28;20466;-79
2022/04/15 05:31:57;;;;;;;5.97;4.33;;;;;;;15.53;55.52;99414.50;7014577;28;20223;-78
2022/04/15 05:35:19;;;;;;;7.20;4.03;;;;;;;15.49;55.77;99422.25;7031279;28;20196;-79
2022/04/15 05:38:42;;;;;;;4.63;4.10;;;;;;;16.19;54.21;99442.72;7030924;28;20366;-79
2022/04/15 05:42:04;;;;;;;5.47;3.97;;;;;;;16.40;53.88;99447.75;7031690;28;20844;-80
2022/04/15 05:45:26;;;;;;;6.03;4.30;;;;;;;15.92;55.15;99434.00;7031551;28;20600;-79
2022/04/15 05:48:47;;;;;;;4.33;3.93;;;;;;;17.08;52.95;99454.63;7009021;28;20197;-79
2022/04/15 05:52:09;;;;;;;4.97;3.97;;;;;;;17.33;51.51;99447.16;7025135;28;20257;-79
2022/04/15 05:55:33;;;;;;;7.63;6.47;;;;;;;17.27;52.13;99435.28;7023701;28;20204;-79
2022/04/15 05:58:54;;;;;;;4.77;4.20;;;;;;;17.57;51.36;99452.44;7023871;28;20231;-79
2022/04/15 06:02:16;;;;;;;5.40;4.00;;;;;;;17.20;52.03;99455.50;7031600;28;20623;-79
2022/04/15 06:05:38;;;;;;;7.37;4.57;;;;;;;17.22;52.44;99451.47;7030168;28;20235;-80
2022/04/15 06:08:59;;;;;;;5.10;4.07;;;;;;;17.28;52.57;99458.72;7031948;28;20245;-81
2022/04/15 06:12:24;;;;;;;5.10;4.43;;;;;;;17.39;52.49;99460.69;7031136;28;20232;-79
2022/04/15 06:15:52;;;;;;;5.33;4.20;;;;;;;17.63;52.14;99451.50;7031422;28;20197;-80
2022/04/15 06:19:14;;;;;;;5.17;4.67;;;;;;;18.01;51.16;99442.88;7012983;28;20228;-79
2022/04/15 06:22:36;;;;;;;4.97;3.77;;;;;;;18.81;49.33;99461.13;7003369;28;20450;-79
2022/04/15 06:25:58;;;;;;;5.50;4.27;;;;;;;18.85;49.01;99471.31;7002691;28;20782;-80
2022/04/15 06:29:21;;;;;;;5.23;4.37;;;;;;;19.44;47.21;99448.13;7003699;28;20256;-79
2022/04/15 06:32:42;;;;;;;5.90;4.70;;;;;;;19.76;47.11;99463.75;7020748;28;20204;-79
2022/04/15 06:36:04;;;;;;;4.77;4.33;;;;;;;19.00;48.58;99465.31;7031004;28;20285;-79
2022/04/15 06:39:26;;;;;;;5.23;4.70;;;;;;;18.86;49.68;99462.03;7031223;28;20228;-78
2022/04/15 06:42:48;;;;;;;4.77;4.27;;;;;;;19.18;48.48;99452.31;7031237;28;20689;-78
2022/04/15 06:46:11;;;;;;;5.30;4.80;;;;;;;18.89;50.28;99458.84;7030646;28;20580;-79
2022/04/15 06:49:32;;;;;;;5.97;4.90;;;;;;;18.89;50.30;99463.44;7030807;28;20317;-79
2022/04/15 06:52:54;;;;;;;5.20;4.70;;;;;;;19.02;49.80;99464.00;7030923;28;20743;-79
2022/04/15 06:56:15;;;;;;;5.43;4.57;;;;;;;19.21;49.92;99449.09;7030446;28;20208;-79
2022/04/15 06:59:37;;;;;;;4.90;4.50;;;;;;;19.57;48.76;99475.22;7031181;28;20244;-79
2022/04/15 07:03:00;;;;;;;5.23;4.73;;;;;;;20.33;47.52;99464.44;7030483;28;20240;-79
2022/04/15 07:06:22;;;;;;;6.53;4.97;;;;;;;20.11;47.43;99442.47;7030289;28;20191;-79
2022/04/15 07:09:44;;;;;;;6.33;5.73;;;;;;;19.92;47.98;99449.25;7030846;28;20294;-79
2022/04/15 07:13:06;;;;;;;7.07;6.17;;;;;;;21.08;45.77;99463.56;7035852;28;20196;-78
2022/04/15 07:16:28;;;;;;;9.27;6.40;;;;;;;21.09;45.42;99465.22;7036819;28;20244;-79
2022/04/15 07:19:51;;;;;;;8.00;7.23;;;;;;;21.20;45.42;99458.75;7035720;28;20226;-79
2022/04/15 07:23:12;;;;;;;9.60;7.90;;;;;;;21.46;44.30;99455.19;7036295;28;20254;-79
2022/04/15 07:26:35;;;;;;;8.57;7.60;;;;;;;21.08;45.63;99443.53;7035396;28;20673;-79
2022/04/15 07:29:56;;;;;;;8.53;7.33;;;;;;;21.15;45.66;99461.44;7036322;28;20260;-79
2022/04/15 07:33:19;;;;;;;9.40;7.67;;;;;;;21.40;44.71;99461.69;7035710;28;20205;-79
2022/04/15 07:36:53;;;;;;;8.90;7.67;;;;;;;21.40;45.05;99470.78;7032194;28;20232;-79
2022/04/15 07:40:15;;;;;;;12.33;7.77;;;;;;;20.92;45.58;99460.91;7036824;28;20230;-79
2022/04/15 07:43:36;;;;;;;9.77;8.00;;;;;;;21.78;44.10;99462.38;7017362;28;20655;-78
2022/04/15 07:46:59;;;;;;;12.17;7.93;;;;;;;22.38;42.31;99462.03;7041207;28;20198;-78
2022/04/15 07:50:23;;;;;;;9.70;7.73;;;;;;;22.75;41.66;99460.91;7032492;28;20223;-79
2022/04/15 07:53:46;;;;;;;8.97;8.07;;;;;;;22.82;40.80;99453.22;7023832;28;20196;-79
2022/04/15 07:57:07;;;;;;;8.77;7.87;;;;;;;23.13;40.40;99460.50;7027070;28;20736;-79
2022/04/15 08:00:34;;;;;;;8.63;7.83;;;;;;;22.99;40.56;99462.09;7035781;28;20276;-79
2022/04/15 08:03:56;;;;;;;10.83;7.60;;;;;;;23.09;40.26;99462.16;7025606;28;20283;-80
2022/04/15 08:07:18;;;;;;;8.70;7.50;;;;;;;23.62;38.16;99445.25;7035469;28;20193;-79
2022/04/15 08:10:42;;;;;;;10.00;7.90;;;;;;;23.99;37.50;99459.59;7026733;28;20826;-80
2022/04/15 08:14:03;;;;;;;8.67;7.87;;;;;;;23.63;37.95;99424.84;7018430;28;20294;-79
2022/04/15 08:17:25;;;;;;;9.17;7.77;;;;;;;24.23;36.95;99443.31;7017016;28;20220;-79
2022/04/15 08:20:47;;;;;;;8.53;7.63;;;;;;;24.09;37.76;99467.88;7033077;28;20229;-80
2022/04/15 08:24:09;;;;;;;10.27;8.00;;;;;;;23.67;38.69;99441.66;7028373;28;20286;-79
2022/04/15 08:27:32;;;;;;;9.33;8.23;;;;;;;24.01;38.16;99468.41;7034224;28;20222;-79
2022/04/15 08:30:53;;;;;;;9.17;8.27;;;;;;;23.89;38.31;99447.78;7031763;28;20232;-80
2022/04/15 08:34:15;;;;;;;11.83;8.23;;;;;;;23.89;38.56;99467.84;7028097;28;20609;-80
2022/04/15 08:37:36;;;;;;;9.87;8.97;;;;;;;24.55;35.64;99441.88;7006953;28;20229;-80
2022/04/15 08:40:59;;;;;;;9.30;8.40;;;;;;;24.11;37.06;99429.00;7015560;28;20286;-79
2022/04/15 08:44:22;;;;;;;12.60;8.53;;;;;;;24.61;35.84;99470.31;7007503;28;20198;-81
2022/04/15 08:47:45;;;;;;;10.73;9.63;;;;;;;24.40;37.44;99463.13;7007492;28;20216;-79
2022/04/15 08:51:07;;;;;;;10.90;9.00;;;;;;;24.52;35.94;99461.75;7013577;28;20266;-77
2022/04/15 08:54:28;;;;;;;11.47;10.37;;;;;;;24.03;36.44;99473.66;7032103;28;20213;-78
2022/04/15 08:57:50;;;;;;;11.17;9.93;;;;;;;23.44;37.78;99448.53;7034294;28;20228;-78
2022/04/15 09:01:13;;;;;;;11.23;9.20;;;;;;;24.36;37.22;99462.06;7033605;28;20306;-78
2022/04/15 09:04:35;;;;;;;13.17;11.63;;;;;;;23.83;36.35;99465.38;7016779;28;20485;-78
2022/04/15 09:08:05;;;;;;;16.07;11.07;;;;;;;24.63;35.17;99471.69;7003541;28;20213;-77
2022/04/15 09:11:31;;;;;;;12.37;11.07;;;;;;;24.79;34.90;99469.69;7004583;28;20242;-77
2022/04/15 09:14:52;;;;;;;12.00;10.80;;;;;;;24.61;35.70;99476.63;7007972;28;20212;-78
2022/04/15 09:18:29;;;;;;;12.93;11.63;;;;;;;24.99;33.73;99473.22;7034490;28;20228;-77
2022/04/15 09:21:53;;;;;;;13.77;12.43;;;;;;;25.06;33.57;99470.97;7042083;28;20228;-77
2022/04/15 09:25:15;;;;;;;13.00;11.70;;;;;;;24.91;33.71;99461.94;7018804;28;20208;-78
2022/04/15 09:28:37;;;;;;;13.07;11.83;;;;;;;24.88;34.14;99474.34;7010883;28;20204;-78
2022/04/15 09:32:06;;;;;;;15.03;13.53;;;;;;;24.84;33.66;99473.25;7033978;28;20224;-76
2022/04/15 09:35:29;;;;;;;29.40;19.93;;;;;;;25.33;33.37;99454.03;7031057;28;20236;-78
2022/04/15 09:38:51;;;;;;;19.60;16.03;;;;;;;26.07;31.85;99479.50;7030330;28;20229;-77
2022/04/15 09:42:14;;;;;;;13.40;12.03;;;;;;;26.39;31.54;99472.31;7033240;28;20242;-78
2022/04/15 09:45:36;;;;;;;13.40;12.00;;;;;;;25.90;33.32;99471.59;7032317;28;20577;-78
2022/04/15 09:49:04;;;;;;;13.60;12.20;;;;;;;25.95;32.32;99463.28;7031919;28;20211;-78
2022/04/15 09:52:26;;;;;;;13.43;12.13;;;;;;;25.17;33.94;99485.53;7032383;28;20286;-78
2022/04/15 09:55:50;;;;;;;14.90;13.50;;;;;;;24.97;33.98;99478.19;7031489;28;20238;-78
2022/04/15 09:59:15;;;;;;;14.30;13.10;;;;;;;24.84;32.85;99473.25;7032887;28;20226;-78
2022/04/15 10:02:37;;;;;;;13.23;12.03;;;;;;;24.91;34.32;99459.16;7035920;28;20196;-79
2022/04/15 10:05:59;;;;;;;14.03;12.67;;;;;;;24.75;33.74;99474.13;7032742;28;20209;-79
2022/04/15 10:09:23;;;;;;;13.13;11.67;;;;;;;24.14;34.12;99476.13;7024406;28;20223;-80
2022/04/15 10:12:45;;;;;;;13.80;12.40;;;;;;;24.33;33.50;99474.47;7031946;28;20256;-78
2022/04/15 10:16:07;;;;;;;12.73;11.53;;;;;;;23.78;35.22;99468.09;7030713;28;20577;-78
2022/04/15 10:19:29;;;;;;;11.77;10.57;;;;;;;25.11;33.99;99465.44;7029509;28;20236;-77
2022/04/15 10:22:51;;;;;;;12.13;11.07;;;;;;;24.85;31.68;99460.28;7030701;28;20334;-78
2022/04/15 10:26:18;;;;;;;10.83;9.87;;;;;;;25.42;31.82;99460.63;7030118;28;20201;-78
2022/04/15 10:29:39;;;;;;;10.97;9.97;;;;;;;25.43;32.01;99465.81;7029929;28;20216;-77
2022/04/15 10:33:01;;;;;;;11.03;9.90;;;;;;;25.68;31.34;99451.03;7030183;28;20208;-77
2022/04/15 10:36:23;;;;;;;10.67;9.67;;;;;;;26.01;29.89;99456.59;7029528;28;20249;-77
2022/04/15 10:39:47;;;;;;;9.70;8.80;;;;;;;25.82;30.24;99452.88;7030396;28;20251;-77
2022/04/15 10:43:20;;;;;;;9.60;8.63;;;;;;;24.65;31.95;99469.47;7030020;28;20208;-78
2022/04/15 10:46:42;;;;;;;10.50;9.53;;;;;;;25.83;29.96;99451.75;7033650;28;20200;-78
2022/04/15 10:50:06;;;;;;;10.13;9.13;;;;;;;26.58;29.98;99441.97;7035106;28;20232;-78
2022/04/15 10:53:34;;;;;;;11.10;10.00;;;;;;;25.46;30.62;99442.34;7036329;28;20307;-80
2022/04/15 10:56:59;;;;;;;8.93;8.13;;;;;;;26.20;29.47;99451.19;7035095;28;20185;-78
2022/04/15 11:04:04;;;;;;;13.10;9.53;;;;;;;25.56;31.66;99451.41;7036487;28;20174;-80
2022/04/15 11:07:27;;;;;;;8.93;8.03;;;;;;;24.48;31.50;99457.06;7046728;28;20200;-79
2022/04/15 11:11:03;;;;;;;9.20;8.40;;;;;;;24.74;31.17;99458.69;7050604;28;20238;-79
2022/04/15 11:14:35;;;;;;;10.67;9.67;;;;;;;24.42;31.57;99460.94;7036796;28;20205;-79
2022/04/15 11:18:14;;;;;;;9.70;8.73;;;;;;;25.22;31.62;99446.88;7016386;28;20222;-79
2022/04/15 11:21:37;;;;;;;7.23;6.53;;;;;;;25.00;28.39;99474.00;7009686;28;20228;-79
2022/04/15 11:25:00;;;;;;;8.90;7.20;;;;;;;24.16;30.49;99462.06;7008446;28;20210;-79
2022/04/15 11:28:23;;;;;;;9.17;8.27;;;;;;;24.97;29.30;99463.56;7007846;28;20343;-79
2022/04/15 11:31:49;;;;;;;9.80;8.03;;;;;;;25.44;28.27;99447.34;7015718;28;20298;-79
2022/04/15 11:35:12;;;;;;;10.00;7.97;;;;;;;24.92;28.87;99452.53;7036420;28;20188;-79
2022/04/15 11:38:34;;;;;;;8.07;6.83;;;;;;;25.29;27.35;99447.41;7036010;28;20582;-79
2022/04/15 11:41:57;;;;;;;7.83;7.07;;;;;;;26.25;27.16;99443.66;7036326;28;20727;-79
2022/04/15 11:45:31;;;;;;;7.67;6.70;;;;;;;25.89;26.47;99450.59;7035916;28;20681;-79
2022/04/15 11:48:55;;;;;;;7.87;6.87;;;;;;;26.15;26.85;99446.53;7035306;28;20203;-79
2022/04/15 11:52:23;;;;;;;8.37;7.47;;;;;;;26.04;26.77;99444.97;7035937;28;20205;-80
2022/04/15 11:55:49;;;;;;;7.03;5.83;;;;;;;25.27;27.61;99431.16;7036308;28;20205;-78
2022/04/15 11:59:11;;;;;;;7.73;7.03;;;;;;;25.19;27.23;99406.06;7035586;28;20270;-79
2022/04/15 12:02:33;;;;;;;8.20;6.37;;;;;;;24.79;28.82;99437.41;7037105;28;20205;-79
2022/04/15 12:05:57;;;;;;;5.87;5.20;;;;;;;25.15;28.00;99435.31;7036092;28;20220;-79
2022/04/15 12:09:20;;;;;;;5.60;5.00;;;;;;;24.99;28.91;99418.03;7036865;28;20227;-79
2022/04/15 12:12:42;;;;;;;6.43;5.70;;;;;;;25.63;27.51;99428.97;7037014;28;20225;-79
2022/04/15 12:16:05;;;;;;;7.73;5.87;;;;;;;26.45;26.41;99424.13;7036674;28;20190;-79
2022/04/15 12:19:27;;;;;;;5.60;4.70;;;;;;;25.94;27.54;99406.38;7040639;28;20232;-79
2022/04/15 12:22:48;;;;;;;7.40;6.60;;;;;;;26.30;27.23;99401.34;7043422;28;20231;-79
2022/04/15 12:26:13;;;;;;;7.53;6.37;;;;;;;25.92;27.18;99411.38;7042874;28;20201;-80
2022/04/15 12:29:48;;;;;;;8.03;7.23;;;;;;;25.76;27.41;99389.63;7039595;28;20941;-79
2022/04/15 12:33:11;;;;;;;6.70;6.03;;;;;;;26.54;27.80;99411.31;7029263;28;20208;-79
2022/04/15 12:36:40;;;;;;;6.53;5.00;;;;;;;26.88;25.75;99398.16;7029536;28;20208;-79
2022/04/15 12:40:03;;;;;;;7.87;5.63;;;;;;;26.63;27.29;99397.66;7025626;28;20319;-79
2022/04/15 12:43:26;;;;;;;6.80;6.10;;;;;;;26.43;26.80;99398.66;7031806;28;20219;-80
2022/04/15 12:46:49;;;;;;;7.80;5.73;;;;;;;26.02;28.13;99397.44;7014791;28;20200;-79
2022/04/15 12:50:19;;;;;;;6.57;5.83;;;;;;;26.08;27.14;99385.22;7020709;28;20213;-79
2022/04/15 12:53:41;;;;;;;7.27;5.40;;;;;;;26.25;28.10;99388.38;7013378;28;20222;-80
2022/04/15 12:57:02;;;;;;;6.00;5.03;;;;;;;25.86;28.66;99381.25;7033327;28;20198;-80
2022/04/15 13:00:26;;;;;;;7.30;6.20;;;;;;;25.71;28.10;99382.22;7025029;28;20318;-81
2022/04/15 13:03:51;;;;;;;6.73;6.03;;;;;;;25.83;28.48;99385.44;7027496;28;20224;-80
2022/04/15 13:07:13;;;;;;;5.93;5.27;;;;;;;26.12;27.93;99383.53;7027047;28;20276;-80
2022/04/15 13:10:34;;;;;;;7.13;5.30;;;;;;;25.12;28.81;99367.72;7029260;28;20253;-80
2022/04/15 13:13:56;;;;;;;7.27;5.63;;;;;;;24.42;29.75;99383.75;7032516;28;20208;-79
2022/04/15 13:17:19;;;;;;;5.40;4.90;;;;;;;25.14;28.68;99381.25;7033695;28;20727;-80
2022/04/15 13:20:41;;;;;;;5.77;5.17;;;;;;;24.85;29.40;99385.81;7058968;28;20256;-80
2022/04/15 13:24:03;;;;;;;4.97;4.47;;;;;;;25.98;27.81;99377.03;7061804;28;20228;-80
2022/04/15 13:27:25;;;;;;;6.93;5.13;;;;;;;25.62;28.31;99378.44;7013134;28;20216;-80
2022/04/15 13:30:48;;;;;;;5.40;4.90;;;;;;;25.48;28.37;99376.63;7005806;28;20266;-80
2022/04/15 13:34:11;;;;;;;7.00;4.57;;;;;;;25.54;28.57;99372.72;7009516;28;20200;-79
2022/04/15 13:37:34;;;;;;;4.80;4.33;;;;;;;24.72;29.41;99381.72;7017564;28;20201;-80
2022/04/15 13:40:56;;;;;;;7.03;4.27;;;;;;;24.95;28.88;99369.22;7007030;28;20233;-79
2022/04/15 13:44:17;;;;;;;6.73;4.30;;;;;;;24.98;29.00;99376.91;7006611;28;20243;-79
2022/04/15 13:47:39;;;;;;;4.93;4.47;;;;;;;25.39;28.46;99378.34;7006419;28;20206;-79
2022/04/15 13:51:02;;;;;;;6.60;5.20;;;;;;;25.10;29.16;99363.59;7006258;28;20705;-79
2022/04/15 13:58:03;;;;;;;5.50;4.70;;;;;;;25.91;28.52;99360.00;7004741;28;20236;-79
2022/04/15 14:01:26;;;;;;;8.13;5.20;;;;;;;26.03;27.89;99365.94;7017355;28;20217;-79
2022/04/15 14:04:48;;;;;;;5.87;4.13;;;;;;;26.19;27.15;99359.13;7022316;28;20277;-80
2022/04/15 14:08:11;;;;;;;6.60;5.43;;;;;;;25.47;27.87;99358.38;7029822;28;20210;-79
2022/04/15 14:11:34;;;;;;;5.37;4.50;;;;;;;26.26;26.71;99358.78;7014523;28;20226;-79
2022/04/15 14:14:56;;;;;;;7.23;4.63;;;;;;;26.07;27.09;99355.94;7024965;28;20205;-80
2022/04/15 14:18:18;;;;;;;6.13;4.57;;;;;;;26.09;26.72;99361.19;7033167;28;20259;-80
2022/04/15 14:21:40;;;;;;;6.90;4.60;;;;;;;26.08;27.32;99334.66;7040312;28;20227;-80
2022/04/15 14:25:04;;;;;;;6.30;4.60;;;;;;;26.18;27.13;99354.72;7037655;28;20218;-80
2022/04/15 14:28:25;;;;;;;5.30;4.80;;;;;;;25.66;26.40;99323.44;7024046;28;20217;-80
2022/04/15 14:31:47;;;;;;;4.50;4.00;;;;;;;25.38;27.14;99338.03;7033347;28;20583;-80
2022/04/15 14:35:09;;;;;;;4.50;3.97;;;;;;;25.38;27.34;99362.88;7042303;28;20201;-80
2022/04/15 14:38:32;;;;;;;4.77;3.90;;;;;;;24.68;28.42;99366.88;7042839;28;20221;-80
2022/04/15 14:41:55;;;;;;;4.83;3.67;;;;;;;24.47;28.53;99365.25;7036216;28;20756;-79
2022/04/15 14:45:19;;;;;;;6.67;4.10;;;;;;;24.62;27.95;99336.81;7018033;28;20193;-79
2022/04/15 14:48:43;;;;;;;4.90;4.40;;;;;;;25.27;26.25;99347.50;7023824;28;20209;-80
2022/04/15 14:52:05;;;;;;;4.43;3.20;;;;;;;25.43;26.69;99362.84;7036601;28;20221;-80
2022/04/15 14:55:27;;;;;;;4.30;3.20;;;;;;;25.01;27.73;99355.09;7035523;28;20284;-80
2022/04/15 14:58:50;;;;;;;4.07;3.53;;;;;;;24.81;28.39;99366.25;7031776;28;20227;-80
2022/04/15 15:02:12;;;;;;;4.40;3.50;;;;;;;24.69;27.67;99373.19;7031395;28;20255;-79
2022/04/15 15:05:33;;;;;;;4.33;3.80;;;;;;;24.81;28.11;99357.13;7018527;28;20263;-79
2022/04/15 15:08:55;;;;;;;4.93;3.10;;;;;;;24.46;29.15;99348.97;7015233;28;20207;-80
2022/04/15 15:12:16;;;;;;;5.03;3.50;;;;;;;24.34;28.26;99337.44;7034101;28;20212;-79
2022/04/15 15:15:39;;;;;;;4.43;2.97;;;;;;;24.80;27.24;99339.78;7026856;28;20206;-79
2022/04/15 15:19:01;;;;;;;4.47;3.17;;;;;;;25.37;26.84;99344.69;7015952;28;20230;-80
2022/04/15 15:22:26;;;;;;;5.17;3.27;;;;;;;25.10;26.97;99358.91;7023841;28;20209;-80
2022/04/15 15:33:07;;;;;;;6.10;3.03;;;;;;;24.53;27.46;99371.56;7018041;28;20197;-80
2022/04/15 15:36:29;;;;;;;3.50;2.67;;;;;;;24.70;26.92;99347.25;7022343;28;20217;-80
2022/04/15 15:39:51;;;;;;;4.07;3.20;;;;;;;24.31;26.38;99352.63;7027780;28;20291;-80
2022/04/15 15:43:13;;;;;;;4.47;2.90;;;;;;;24.29;27.62;99357.59;7023448;28;20249;-79
2022/04/15 15:46:35;;;;;;;6.47;2.90;;;;;;;24.38;27.29;99352.34;7013308;28;20201;-80
2022/04/15 15:49:58;;;;;;;2.80;2.60;;;;;;;24.30;28.34;99330.88;7028473;28;20221;-83
2022/04/15 15:53:20;;;;;;;5.40;3.67;;;;;;;24.67;27.91;99345.06;7028381;28;20193;-79
2022/04/15 15:56:41;;;;;;;4.50;3.80;;;;;;;24.80;27.71;99352.72;7035528;28;20312;-80
2022/04/15 16:00:05;;;;;;;4.03;3.33;;;;;;;24.74;27.44;99349.19;7035847;28;20229;-79
2022/04/15 16:03:26;;;;;;;4.43;3.60;;;;;;;24.25;27.73;99348.22;7036530;28;20229;-80
2022/04/15 16:06:49;;;;;;;3.67;2.93;;;;;;;24.36;28.21;99357.31;7033435;28;20271;-80